createdAt,value
2022-10-19T01:13:05.298Z,73.27
2022-10-19T01:17:18.295Z,73.27
2022-10-19T01:21:26.671Z,73.28
2022-10-19T01:25:47.146Z,73.47
2022-10-19T01:30:10.185Z,73.53
2022-10-19T01:34:16.826Z,73.53
2022-10-19T01:38:31.291Z,73.11
2022-10-19T01:42:44.428Z,72.87
2022-10-19T01:46:54.692Z,72.60
2022-10-19T01:51:02.844Z,72.56
2022-10-19T01:55:07.035Z,72.92
2022-10-19T01:59:13.320Z,72.69
2022-10-19T02:03:19.285Z,72.61
2022-10-19T02:07:25.391Z,72.05
2022-10-19T02:11:28.951Z,71.13
2022-10-19T02:15:35.447Z,70.63
2022-10-19T02:19:40.505Z,69.98
2022-10-19T02:23:43.624Z,69.92
2022-10-19T02:27:47.268Z,69.49
2022-10-19T02:31:51.325Z,69.48
2022-10-19T02:35:56.333Z,69.28
2022-10-19T02:39:59.632Z,68.88
2022-10-19T02:44:07.061Z,68.91
2022-10-19T02:48:14.581Z,68.53
2022-10-19T02:52:19.207Z,68.85
2022-10-19T02:56:23.447Z,68.85
2022-10-19T03:00:26.944Z,68.86
2022-10-19T03:04:30.482Z,68.64
2022-10-19T03:08:34.914Z,68.67
2022-10-19T03:12:38.407Z,68.33
2022-10-19T03:16:42.122Z,68.28
2022-10-19T03:20:45.696Z,68.81
2022-10-19T03:24:50.597Z,69.12
2022-10-19T03:28:53.645Z,69.32
2022-10-19T03:32:57.465Z,69.70
2022-10-19T03:37:00.552Z,68.64
2022-10-19T03:41:07.452Z,70.02
2022-10-19T03:45:11.070Z,69.81
2022-10-19T03:49:14.970Z,69.13
2022-10-19T03:53:18.748Z,69.51
2022-10-19T03:57:23.776Z,69.39
2022-10-19T04:01:29.121Z,69.20
2022-10-19T04:05:32.650Z,69.25
2022-10-19T04:09:35.736Z,68.94
2022-10-19T04:13:41.197Z,69.25
2022-10-19T04:17:47.880Z,68.34
2022-10-19T04:21:51.565Z,68.95
2022-10-19T04:25:55.212Z,68.69
2022-10-19T04:29:59.688Z,68.85
2022-10-19T04:34:03.317Z,68.77
2022-10-19T04:38:06.311Z,69.00
2022-10-19T04:42:09.869Z,68.71
2022-10-19T04:46:15.887Z,69.18
2022-10-19T04:50:18.835Z,69.13
2022-10-19T04:54:22.371Z,68.94
2022-10-19T04:58:25.894Z,68.69
2022-10-19T05:02:30.986Z,68.55
2022-10-19T05:06:34.085Z,68.63
2022-10-19T05:10:37.764Z,68.45
2022-10-19T05:14:42.891Z,68.58
2022-10-19T05:18:50.433Z,69.09
2022-10-19T05:22:54.287Z,68.36
2022-10-19T05:26:57.328Z,69.16
2022-10-19T05:31:07.927Z,69.25
2022-10-19T05:35:12.227Z,68.96
2022-10-19T05:39:17.745Z,69.34
2022-10-19T05:43:32.895Z,69.10
2022-10-19T05:47:36.873Z,68.87
2022-10-19T05:51:42.227Z,69.00
2022-10-19T05:55:45.312Z,69.52
2022-10-19T05:59:48.782Z,69.02
2022-10-19T06:03:54.626Z,68.40
2022-10-19T06:07:58.956Z,68.64
2022-10-19T06:12:02.445Z,68.76
2022-10-19T06:16:10.156Z,69.00
2022-10-19T06:20:13.615Z,69.05
2022-10-19T06:24:18.527Z,69.67
2022-10-19T06:28:22.009Z,69.56
2022-10-19T06:32:25.477Z,69.12
2022-10-19T06:36:30.653Z,70.03
2022-10-19T06:40:36.581Z,69.54
2022-10-19T06:44:39.940Z,68.86
2022-10-19T06:48:42.914Z,68.93
2022-10-19T06:52:46.351Z,69.20
2022-10-19T06:56:51.216Z,69.09
2022-10-19T07:00:58.407Z,69.20
2022-10-19T07:05:06.977Z,68.96
2022-10-19T07:09:11.285Z,68.73
2022-10-19T07:13:15.914Z,68.12
2022-10-19T07:17:19.615Z,67.88
2022-10-19T07:21:24.460Z,67.72
2022-10-19T07:25:27.931Z,67.09
2022-10-19T07:29:32.542Z,67.16
2022-10-19T07:33:36.202Z,65.47
2022-10-19T07:37:39.208Z,64.52
2022-10-19T07:41:42.299Z,65.03
2022-10-19T07:45:47.150Z,64.04
2022-10-19T07:49:50.521Z,63.90
2022-10-19T07:53:53.763Z,63.91
2022-10-19T07:58:01.967Z,64.20
2022-10-19T08:02:08.146Z,64.23
2022-10-19T08:06:14.018Z,63.41
2022-10-19T08:10:17.725Z,63.85
2022-10-19T08:14:21.131Z,65.24
2022-10-19T08:18:26.057Z,65.33
2022-10-19T08:22:29.116Z,63.40
2022-10-19T08:26:34.474Z,63.21
2022-10-19T08:30:38.437Z,62.40
2022-10-19T08:34:43.688Z,62.10
2022-10-19T08:38:48.620Z,60.64
2022-10-19T08:42:59.856Z,61.14
2022-10-19T08:47:13.820Z,60.06
2022-10-19T08:51:19.128Z,59.12
2022-10-19T08:55:30.642Z,59.27
2022-10-19T08:59:39.822Z,58.21
2022-10-19T09:03:55.431Z,56.94
2022-10-19T09:08:01.667Z,55.62
2022-10-19T09:12:08.134Z,56.07
2022-10-19T09:16:14.493Z,55.02
2022-10-19T09:20:21.059Z,56.08
2022-10-19T09:24:33.719Z,57.24
2022-10-19T09:28:42.472Z,59.95
2022-10-19T09:32:45.618Z,55.53
2022-10-19T09:36:54.681Z,56.92
2022-10-19T09:41:00.535Z,55.70
2022-10-19T09:45:16.463Z,55.71
2022-10-19T09:49:21.060Z,55.05
2022-10-19T09:53:24.768Z,54.66
2022-10-19T09:57:29.597Z,54.11
2022-10-19T10:01:41.691Z,53.31
2022-10-19T10:05:49.638Z,54.82
2022-10-19T10:09:54.606Z,54.58
2022-10-19T10:14:03.958Z,54.46
2022-10-19T10:18:17.701Z,53.62
2022-10-19T10:22:28.636Z,53.84
2022-10-19T10:26:33.891Z,51.58
2022-10-19T10:30:39.045Z,54.49
2022-10-19T10:34:51.855Z,51.98
2022-10-19T10:43:18.747Z,51.98
2022-10-19T10:47:23.801Z,53.53
2022-10-19T10:51:34.650Z,51.62
2022-10-19T10:55:38.248Z,50.53
2022-10-19T10:59:57.468Z,51.45
2022-10-19T11:04:08.856Z,51.87
2022-10-19T11:08:20.961Z,48.30
2022-10-19T11:12:36.359Z,48.71
2022-10-19T11:16:48.019Z,47.93
2022-10-19T11:21:01.958Z,50.72
2022-10-19T11:25:21.215Z,51.40
2022-10-19T11:29:48.828Z,48.88
2022-10-19T11:34:02.577Z,49.75
2022-10-19T11:38:30.124Z,48.54
2022-10-19T11:42:49.284Z,48.76
2022-10-19T11:47:09.980Z,50.17
2022-10-19T11:51:21.618Z,50.13
2022-10-19T11:55:37.070Z,49.57
2022-10-19T12:00:00.172Z,49.24
2022-10-19T12:04:36.764Z,49.62
2022-10-19T12:08:59.316Z,47.97
2022-10-19T12:13:07.868Z,46.80
2022-10-19T12:21:40.905Z,46.69
2022-10-19T12:25:46.162Z,47.71
2022-10-19T12:29:51.322Z,48.16
2022-10-19T12:34:02.432Z,50.29
2022-10-19T12:38:10.553Z,47.10
2022-10-19T12:42:21.605Z,47.62
2022-10-19T12:46:37.300Z,48.83
2022-10-19T12:51:03.916Z,47.12
2022-10-19T12:55:28.021Z,50.25
2022-10-19T12:59:34.214Z,48.06
2022-10-19T13:03:42.331Z,48.52
2022-10-19T13:12:36.885Z,51.06
2022-10-19T13:16:58.848Z,51.66
2022-10-19T13:21:03.896Z,51.73
2022-10-19T13:25:31.219Z,51.39
2022-10-19T13:29:45.195Z,51.18
2022-10-19T13:33:56.631Z,50.13
2022-10-19T13:38:26.915Z,50.98
2022-10-19T13:42:30.643Z,48.94
2022-10-19T13:46:50.330Z,50.92
2022-10-19T13:50:56.999Z,49.63
2022-10-19T13:55:34.293Z,49.73
2022-10-19T13:59:59.721Z,48.55
2022-10-19T14:04:26.708Z,48.16
2022-10-19T14:09:05.926Z,49.98
2022-10-19T14:13:16.391Z,50.13
2022-10-19T14:17:21.859Z,49.14
2022-10-19T14:21:33.649Z,48.21
2022-10-19T14:25:36.752Z,48.08
2022-10-19T14:29:47.908Z,49.52
2022-10-19T14:33:54.408Z,47.83
2022-10-19T14:37:58.640Z,48.16
2022-10-19T14:42:06.219Z,48.38
2022-10-19T14:46:15.920Z,49.58
2022-10-19T14:50:19.612Z,48.83
2022-10-19T14:54:30.774Z,49.41
2022-10-19T14:58:40.993Z,49.39
2022-10-19T15:02:49.202Z,50.06
2022-10-19T15:06:53.038Z,49.86
2022-10-19T15:10:56.680Z,49.89
2022-10-19T15:14:59.921Z,50.91
2022-10-19T15:19:27.769Z,51.88
2022-10-19T15:23:42.396Z,52.30
2022-10-19T15:27:47.781Z,52.38
2022-10-19T15:31:52.994Z,53.35
2022-10-19T15:36:07.331Z,52.38
2022-10-19T15:40:13.753Z,50.24
2022-10-19T15:44:33.963Z,52.31
2022-10-19T15:48:51.213Z,52.26
2022-10-19T15:53:00.723Z,51.53
2022-10-19T15:57:03.696Z,51.75
2022-10-19T16:01:13.310Z,52.84
2022-10-19T16:05:16.897Z,52.85
2022-10-19T16:09:24.476Z,54.24
2022-10-19T16:13:27.651Z,54.58
2022-10-19T16:17:31.300Z,54.70
2022-10-19T16:21:36.595Z,54.90
2022-10-19T16:25:41.745Z,55.52
2022-10-19T16:29:45.914Z,55.90
2022-10-19T16:33:49.708Z,56.22
2022-10-19T16:42:19.073Z,58.11
2022-10-19T16:46:23.118Z,58.16
2022-10-19T16:50:26.691Z,58.08
2022-10-19T16:54:32.170Z,58.53
2022-10-19T16:58:37.669Z,58.79
2022-10-19T17:02:43.186Z,59.08
2022-10-19T17:06:50.373Z,59.10
2022-10-19T17:10:54.886Z,58.92
2022-10-19T17:15:29.964Z,58.83
2022-10-19T17:19:23.300Z,59.00
2022-10-19T17:23:26.859Z,59.29
2022-10-19T17:27:32.919Z,59.36
2022-10-19T17:31:38.150Z,59.57
2022-10-19T17:35:41.868Z,59.73
2022-10-19T17:39:44.933Z,59.73
2022-10-19T17:43:52.340Z,59.84
2022-10-19T17:47:58.722Z,59.92
2022-10-19T17:52:02.470Z,60.16
2022-10-19T17:56:09.182Z,60.22
2022-10-19T18:04:17.015Z,60.88
2022-10-19T18:08:20.811Z,60.88
2022-10-19T18:12:24.693Z,61.16
2022-10-19T18:16:30.745Z,61.20
2022-10-19T18:20:36.251Z,61.45
2022-10-19T18:24:41.449Z,62.33
2022-10-19T18:28:45.842Z,62.22
2022-10-19T18:32:51.234Z,62.36
2022-10-19T18:36:57.658Z,62.38
2022-10-19T18:41:06.124Z,61.69
2022-10-19T18:45:12.817Z,61.28
2022-10-19T18:49:19.370Z,61.65
2022-10-19T18:53:25.060Z,61.82
2022-10-19T18:57:31.724Z,61.76
2022-10-19T19:01:35.884Z,61.88
2022-10-19T19:05:39.755Z,62.61
2022-10-19T19:09:44.734Z,62.87
2022-10-19T19:13:49.898Z,62.85
2022-10-19T19:17:57.135Z,62.50
2022-10-19T19:22:07.876Z,62.71
2022-10-19T19:26:14.748Z,61.57
2022-10-19T19:30:18.769Z,61.54
2022-10-19T19:34:22.707Z,61.17
2022-10-19T19:38:26.531Z,61.63
2022-10-19T19:42:32.044Z,61.10
2022-10-19T19:46:36.632Z,59.65
2022-10-19T19:50:40.499Z,58.70
2022-10-19T19:54:44.318Z,59.35
2022-10-19T19:58:49.167Z,59.52
2022-10-19T20:02:56.806Z,59.69
2022-10-19T20:06:59.964Z,59.27
2022-10-19T20:11:05.271Z,59.57
2022-10-19T20:15:11.300Z,59.68
2022-10-19T20:19:15.470Z,59.89
2022-10-19T20:23:19.015Z,60.32
2022-10-19T20:27:22.148Z,60.23
2022-10-19T20:35:31.813Z,60.01
2022-10-19T20:39:35.411Z,59.86
2022-10-19T20:43:39.301Z,59.99
2022-10-19T20:47:44.371Z,60.00
2022-10-19T20:51:47.827Z,59.82
2022-10-19T20:55:51.420Z,58.94
2022-10-19T20:59:54.666Z,59.06
2022-10-19T21:04:02.140Z,58.93
2022-10-19T21:08:05.488Z,58.26
2022-10-19T21:12:09.025Z,58.96
2022-10-19T21:16:13.243Z,58.67
2022-10-19T21:20:18.534Z,58.33
2022-10-19T21:24:23.660Z,58.26
2022-10-19T21:28:27.240Z,58.26
2022-10-19T21:32:30.262Z,57.80
2022-10-19T21:36:34.678Z,57.51
2022-10-19T21:40:38.294Z,57.98
2022-10-19T21:44:41.793Z,57.83
2022-10-19T21:48:45.481Z,58.07
2022-10-19T21:52:50.296Z,57.73
2022-10-19T21:56:55.853Z,57.84
2022-10-19T22:01:05.369Z,57.85
2022-10-19T22:05:10.497Z,57.09
2022-10-19T22:09:17.796Z,57.57
2022-10-19T22:13:21.210Z,57.48
2022-10-19T22:17:24.853Z,57.62
2022-10-19T22:21:29.643Z,58.23
2022-10-19T22:25:35.952Z,58.04
2022-10-19T22:29:39.480Z,58.80
2022-10-19T22:33:43.058Z,59.14
2022-10-19T22:37:46.366Z,58.73
2022-10-19T22:41:51.139Z,59.38
2022-10-19T22:45:54.623Z,59.61
2022-10-19T22:49:57.713Z,58.78
2022-10-19T22:54:01.244Z,59.60
2022-10-19T22:58:06.740Z,59.78
2022-10-19T23:02:09.762Z,59.51
2022-10-19T23:06:15.545Z,59.53
2022-10-19T23:10:19.506Z,60.03
2022-10-19T23:14:24.080Z,59.88
2022-10-19T23:18:27.683Z,60.17
2022-10-19T23:22:31.097Z,60.10
2022-10-19T23:26:34.223Z,60.55
2022-10-19T23:30:40.690Z,60.45
2022-10-19T23:34:47.442Z,60.38
2022-10-19T23:38:53.003Z,60.22
2022-10-19T23:42:56.541Z,60.81
2022-10-19T23:47:01.488Z,60.65
2022-10-19T23:51:06.624Z,60.65
2022-10-19T23:55:10.844Z,60.71
2022-10-19T23:59:14.224Z,60.33
